Time;durP1;ratioP1;P1;durP2;ratioP2;P2;SDS_P1;SDS_P2;PMS_P1;PMS_P2;Temp;Humidity;BMP_temperature;BMP_pressure;BME280_temperature;BME280_humidity;BME280_pressure;Samples;Min_cycle;Max_cycle;Signal;HPM_P1;HPM_P2
2023/01/31 00:00:16;;;;;;;;;;;;;;;;;;4973349;28;19926;-69
2023/01/31 00:02:42;;;;;;;;;;;;;;;;;;4971317;28;20409;-68
2023/01/31 00:05:08;;;;;;;;;;;;;;;;;;4971792;28;19921;-70
2023/01/31 00:07:33;;;;;;;;;;;;;;;;;;4976255;28;19918;-71
2023/01/31 00:09:59;;;;;;;;;;;;;;;;;;4973770;28;19925;-66
2023/01/31 00:12:25;;;;;;;;;;;;;;;;;;4969637;28;20327;-68
2023/01/31 00:14:51;;;;;;;;;;;;;;;;;;4974069;28;19988;-66
2023/01/31 00:17:17;;;;;;;;;;;;;;;;;;4975448;28;19925;-67
2023/01/31 00:19:43;;;;;;;;;;;;;;;;;;4984675;28;20008;-68
2023/01/31 00:22:09;;;;;;;;;;;;;;;;;;4963424;28;20440;-67
2023/01/31 00:24:34;;;;;;;;;;;;;;;;;;4975676;28;19914;-70
2023/01/31 00:27:00;;;;;;;;;;;;;;;;;;4980964;28;19913;-66
2023/01/31 00:29:26;;;;;;;;;;;;;;;;;;4985566;28;20543;-66
2023/01/31 00:31:52;;;;;;;;;;;;;;;;;;4979928;28;19921;-69
2023/01/31 00:34:18;;;;;;;;;;;;;;;;;;4975304;28;19953;-68
2023/01/31 00:36:44;;;;;;;;;;;;;;;;;;4979786;28;19921;-69
2023/01/31 00:39:10;;;;;;;;;;;;;;;;;;4978814;28;19921;-69
2023/01/31 00:41:35;;;;;;;;;;;;;;;;;;4970170;28;20385;-69
2023/01/31 00:44:01;;;;;;;;;;;;;;;;;;4972322;28;19921;-69
2023/01/31 00:46:27;;;;;;;;;;;;;;;;;;4977455;28;20272;-67
2023/01/31 00:48:54;;;;;;;;;;;;;;;;;;4977087;28;20221;-68
2023/01/31 00:51:20;;;;;;;;;;;;;;;;;;4985883;28;19971;-68
2023/01/31 00:53:46;;;;;;;;;;;;;;;;;;4986184;28;19925;-69
2023/01/31 00:56:12;;;;;;;;;;;;;;;;;;4969818;28;19925;-67
2023/01/31 00:58:40;;;;;;;;;;;;;;;;;;4967764;28;19925;-67
2023/01/31 01:01:06;;;;;;;;;;;;;;;;;;4968734;28;19983;-68
2023/01/31 01:03:32;;;;;;;;;;;;;;;;;;4962692;28;20546;-68
2023/01/31 01:05:58;;;;;;;;;;;;;;;;;;4967101;28;19960;-68
2023/01/31 01:08:24;;;;;;;;;;;;;;;;;;4972084;28;19943;-66
2023/01/31 01:10:50;;;;;;;;;;;;;;;;;;4974366;28;20618;-68
2023/01/31 01:13:15;;;;;;;;;;;;;;;;;;4984443;28;19921;-67
2023/01/31 01:15:41;;;;;;;;;;;;;;;;;;4990026;28;19917;-69
2023/01/31 01:18:07;;;;;;;;;;;;;;;;;;4968144;28;19914;-68
2023/01/31 01:20:33;;;;;;;;;;;;;;;;;;4977933;28;19921;-66
2023/01/31 01:22:59;;;;;;;;;;;;;;;;;;4960805;28;19922;-68
2023/01/31 01:25:25;;;;;;;;;;;;;;;;;;4982093;28;20499;-68
2023/01/31 01:27:51;;;;;;;;;;;;;;;;;;4973255;28;20401;-68
2023/01/31 01:30:16;;;;;;;;;;;;;;;;;;4970226;28;19925;-68
2023/01/31 01:32:42;;;;;;;;;;;;;;;;;;4981022;28;19917;-67
2023/01/31 01:35:09;;;;;;;;;;;;;;;;;;4977443;28;19928;-69
2023/01/31 01:37:34;;;;;;;;;;;;;;;;;;4988198;28;19918;-66
2023/01/31 01:40:00;;;;;;;;;;;;;;;;;;4988345;28;20400;-69
2023/01/31 01:42:26;;;;;;;;;;;;;;;;;;4990239;28;20219;-68
2023/01/31 01:44:52;;;;;;;;;;;;;;;;;;4997642;28;19926;-68
2023/01/31 01:47:18;;;;;;;;;;;;;;;;;;4999747;28;19961;-68
2023/01/31 01:49:44;;;;;;;;;;;;;;;;;;5002972;28;20000;-66
2023/01/31 01:52:10;;;;;;;;;;;;;;;;;;4982677;28;20017;-66
2023/01/31 01:54:36;;;;;;;;;;;;;;;;;;4984885;28;19929;-67
2023/01/31 01:57:01;;;;;;;;;;;;;;;;;;4993159;28;20353;-70
2023/01/31 01:59:27;;;;;;;;;;;;;;;;;;4989739;28;19975;-67
2023/01/31 02:01:53;;;;;;;;;;;;;;;;;;4978090;28;19917;-66
2023/01/31 02:04:21;;;;;;;;;;;;;;;;;;5029621;23;19929;-85
2023/01/31 02:06:47;;;;;;;;;;;;;;;;;;4989566;28;19921;-83
2023/01/31 02:09:13;;;;;;;;;;;;;;;;;;5021055;28;19922;-85
2023/01/31 02:11:39;;;;;;;;;;;;;;;;;;5024099;28;19913;-84
2023/01/31 02:14:12;;;;;;;;;;;;;;;;;;5022057;28;19917;-82
2023/01/31 02:16:57;;;;;;;;;;;;;;;;;;4989538;28;19996;-87
2023/01/31 02:19:26;;;;;;;;;;;;;;;;;;5019401;28;19925;-85
2023/01/31 02:21:52;;;;;;;;;;;;;;;;;;5021038;28;19960;-86
2023/01/31 02:24:18;;;;;;;;;;;;;;;;;;5024988;28;19918;-84
2023/01/31 02:26:44;;;;;;;;;;;;;;;;;;5021828;28;19949;-84
2023/01/31 02:29:09;;;;;;;;;;;;;;;;;;5003496;28;19925;-86
2023/01/31 02:31:35;;;;;;;;;;;;;;;;;;5021941;28;19919;-86
2023/01/31 02:34:01;;;;;;;;;;;;;;;;;;5018035;28;19949;-82
2023/01/31 02:36:30;;;;;;;;;;;;;;;;;;5021451;28;20312;-89
2023/01/31 02:38:57;;;;;;;;;;;;;;;;;;5020737;28;19921;-86
2023/01/31 02:41:26;;;;;;;;;;;;;;;;;;5013485;28;19933;-83
2023/01/31 02:46:42;;;;;;;;;;;;;;;;;;5009306;28;19924;-86
2023/01/31 02:49:16;;;;;;;;;;;;;;;;;;5019284;28;19918;-84
2023/01/31 02:52:20;;;;;;;;;;;;;;;;;;5006306;28;19917;-85
2023/01/31 02:57:29;;;;;;;;;;;;;;;;;;5007207;28;19924;-83
2023/01/31 02:59:55;;;;;;;;;;;;;;;;;;5018049;28;19926;-84
2023/01/31 03:02:21;;;;;;;;;;;;;;;;;;5022360;28;19920;-87
2023/01/31 03:04:47;;;;;;;;;;;;;;;;;;5023303;28;20385;-85
2023/01/31 03:07:13;;;;;;;;;;;;;;;;;;5028658;28;19913;-82
2023/01/31 03:09:42;;;;;;;;;;;;;;;;;;5023247;28;19922;-82
2023/01/31 03:12:08;;;;;;;;;;;;;;;;;;4992184;28;20004;-82
2023/01/31 03:14:34;;;;;;;;;;;;;;;;;;5023894;28;19980;-82
2023/01/31 03:19:45;;;;;;;;;;;;;;;;;;5010423;28;19924;-86
2023/01/31 03:22:11;;;;;;;;;;;;;;;;;;5026018;28;20058;-86
2023/01/31 03:24:42;;;;;;;;;;;;;;;;;;5024264;28;20049;-86
2023/01/31 03:27:16;;;;;;;;;;;;;;;;;;4995419;28;19914;-85
2023/01/31 03:29:42;;;;;;;;;;;;;;;;;;5024992;28;19960;-85
2023/01/31 03:32:10;;;;;;;;;;;;;;;;;;5027234;28;20452;-83
2023/01/31 03:34:36;;;;;;;;;;;;;;;;;;4995661;28;19929;-86
2023/01/31 03:37:02;;;;;;;;;;;;;;;;;;5024812;28;19913;-83
2023/01/31 03:39:28;;;;;;;;;;;;;;;;;;5029792;28;19965;-86
2023/01/31 03:41:57;;;;;;;;;;;;;;;;;;5023463;28;19917;-83
2023/01/31 03:44:24;;;;;;;;;;;;;;;;;;4986100;28;19920;-83
2023/01/31 03:46:50;;;;;;;;;;;;;;;;;;4990876;28;19918;-82
2023/01/31 03:49:16;;;;;;;;;;;;;;;;;;5020014;28;20293;-88
2023/01/31 03:51:42;;;;;;;;;;;;;;;;;;5027098;28;20033;-84
2023/01/31 03:54:14;;;;;;;;;;;;;;;;;;5024131;28;19928;-85
2023/01/31 03:56:45;;;;;;;;;;;;;;;;;;5024603;28;19925;-82
2023/01/31 03:59:11;;;;;;;;;;;;;;;;;;5026212;28;19917;-86
2023/01/31 04:01:37;;;;;;;;;;;;;;;;;;4989304;28;19921;-83
2023/01/31 04:04:03;;;;;;;;;;;;;;;;;;5021522;28;19928;-85
2023/01/31 04:06:31;;;;;;;;;;;;;;;;;;5026881;28;20000;-83
2023/01/31 04:08:57;;;;;;;;;;;;;;;;;;5025273;28;19923;-87
2023/01/31 04:11:23;;;;;;;;;;;;;;;;;;5029377;28;20007;-84
2023/01/31 04:13:49;;;;;;;;;;;;;;;;;;5023080;28;20352;-81
2023/01/31 04:16:15;;;;;;;;;;;;;;;;;;5008531;28;20452;-84
2023/01/31 04:18:44;;;;;;;;;;;;;;;;;;5018928;28;19966;-82
2023/01/31 04:21:12;;;;;;;;;;;;;;;;;;5014138;28;20410;-83
2023/01/31 04:23:38;;;;;;;;;;;;;;;;;;4990136;28;19929;-82
2023/01/31 04:26:04;;;;;;;;;;;;;;;;;;5007624;28;20378;-85
2023/01/31 04:28:30;;;;;;;;;;;;;;;;;;5021900;28;19922;-82
2023/01/31 04:30:56;;;;;;;;;;;;;;;;;;5024230;28;20369;-86
2023/01/31 04:33:21;;;;;;;;;;;;;;;;;;5021583;28;19939;-81
2023/01/31 04:35:56;;;;;;;;;;;;;;;;;;5006018;28;19918;-83
2023/01/31 04:38:22;;;;;;;;;;;;;;;;;;5024595;28;19952;-84
2023/01/31 04:40:56;;;;;;;;;;;;;;;;;;4989607;28;19918;-89
2023/01/31 04:43:25;;;;;;;;;;;;;;;;;;5020006;28;19952;-83
2023/01/31 04:45:54;;;;;;;;;;;;;;;;;;4989468;28;19913;-84
2023/01/31 04:48:25;;;;;;;;;;;;;;;;;;5023759;28;19919;-86
2023/01/31 04:50:51;;;;;;;;;;;;;;;;;;5021383;28;19922;-84
2023/01/31 04:53:21;;;;;;;;;;;;;;;;;;5022091;28;19917;-84
2023/01/31 04:55:46;;;;;;;;;;;;;;;;;;5021260;28;19914;-87
2023/01/31 04:58:12;;;;;;;;;;;;;;;;;;5019209;28;19918;-84
2023/01/31 05:00:38;;;;;;;;;;;;;;;;;;4991029;28;19928;-84
2023/01/31 05:03:04;;;;;;;;;;;;;;;;;;5020827;28;19917;-86
2023/01/31 05:05:33;;;;;;;;;;;;;;;;;;5017914;28;19921;-87
2023/01/31 05:07:58;;;;;;;;;;;;;;;;;;5018822;28;19972;-85
2023/01/31 05:10:24;;;;;;;;;;;;;;;;;;5021012;28;20391;-85
2023/01/31 05:12:50;;;;;;;;;;;;;;;;;;5022986;28;19956;-83
2023/01/31 05:15:16;;;;;;;;;;;;;;;;;;5020197;28;19924;-86
2023/01/31 05:17:47;;;;;;;;;;;;;;;;;;5034790;23;19930;-54
2023/01/31 05:20:13;;;;;;;;;;;;;;;;;;4982105;23;19975;-52
2023/01/31 05:22:39;;;;;;;;;;;;;;;;;;4979200;28;20012;-53
2023/01/31 05:25:05;;;;;;;;;;;;;;;;;;4980284;28;19920;-54
2023/01/31 05:27:30;;;;;;;;;;;;;;;;;;4991062;28;19970;-53
2023/01/31 05:29:56;;;;;;;;;;;;;;;;;;4996059;28;20067;-53
2023/01/31 05:32:22;;;;;;;;;;;;;;;;;;4969386;28;20381;-52
2023/01/31 05:34:48;;;;;;;;;;;;;;;;;;4984514;28;19928;-52
2023/01/31 05:37:14;;;;;;;;;;;;;;;;;;4981182;28;19929;-53
2023/01/31 05:39:40;;;;;;;;;;;;;;;;;;4974117;28;19925;-53
2023/01/31 05:42:06;;;;;;;;;;;;;;;;;;4968660;28;19925;-53
2023/01/31 05:44:32;;;;;;;;;;;;;;;;;;4982813;28;19957;-54
2023/01/31 05:46:59;;;;;;;;;;;;;;;;;;4968746;28;20298;-54
2023/01/31 05:49:26;;;;;;;;;;;;;;;;;;4969843;28;20425;-52
2023/01/31 05:51:52;;;;;;;;;;;;;;;;;;4961939;28;20036;-53
2023/01/31 05:54:18;;;;;;;;;;;;;;;;;;4976920;28;20471;-53
2023/01/31 05:56:43;;;;;;;;;;;;;;;;;;4974731;28;19927;-55
2023/01/31 05:59:09;;;;;;;;;;;;;;;;;;4983031;28;21137;-54
2023/01/31 06:01:35;;;;;;;;;;;;;;;;;;4983232;28;19925;-54
2023/01/31 06:04:01;;;;;;;;;;;;;;;;;;4983341;28;19922;-53
2023/01/31 06:06:27;;;;;;;;;;;;;;;;;;4976582;28;19964;-54
2023/01/31 06:08:53;;;;;;;;;;;;;;;;;;4978073;28;19918;-53
2023/01/31 06:11:19;;;;;;;;;;;;;;;;;;4987437;28;20591;-55
2023/01/31 06:13:45;;;;;;;;;;;;;;;;;;4980152;28;19928;-53
2023/01/31 06:16:11;;;;;;;;;;;;;;;;;;4983877;28;19914;-53
2023/01/31 06:18:37;;;;;;;;;;;;;;;;;;4986911;28;19926;-53
2023/01/31 06:21:02;;;;;;;;;;;;;;;;;;4981357;28;20021;-53
2023/01/31 06:23:28;;;;;;;;;;;;;;;;;;4986740;28;19918;-54
2023/01/31 06:25:54;;;;;;;;;;;;;;;;;;4993036;28;19924;-53
2023/01/31 06:28:20;;;;;;;;;;;;;;;;;;4984243;28;19917;-53
2023/01/31 06:30:46;;;;;;;;;;;;;;;;;;4988495;28;20239;-54
2023/01/31 06:33:12;;;;;;;;;;;;;;;;;;4989654;28;20016;-54
2023/01/31 06:35:38;;;;;;;;;;;;;;;;;;4991702;28;19972;-53
2023/01/31 06:38:04;;;;;;;;;;;;;;;;;;4991729;28;20044;-55
2023/01/31 06:40:29;;;;;;;;;;;;;;;;;;4988589;28;20733;-55
2023/01/31 06:42:55;;;;;;;;;;;;;;;;;;4983190;28;19918;-53
2023/01/31 06:45:21;;;;;;;;;;;;;;;;;;4988876;28;20041;-53
2023/01/31 06:47:47;;;;;;;;;;;;;;;;;;4991672;28;19918;-53
2023/01/31 06:50:13;;;;;;;;;;;;;;;;;;4993084;28;20074;-53
2023/01/31 06:52:39;;;;;;;;;;;;;;;;;;4989299;28;20634;-55
2023/01/31 06:55:05;;;;;;;;;;;;;;;;;;4994051;28;19914;-53
2023/01/31 06:57:30;;;;;;;;;;;;;;;;;;4992535;28;19979;-53
2023/01/31 06:59:56;;;;;;;;;;;;;;;;;;4988044;28;19922;-53
2023/01/31 07:02:22;;;;;;;;;;;;;;;;;;4990389;28;19953;-53
2023/01/31 07:04:48;;;;;;;;;;;;;;;;;;4979722;28;20333;-54
2023/01/31 07:07:14;;;;;;;;;;;;;;;;;;4984272;28;19925;-53
2023/01/31 07:09:40;;;;;;;;;;;;;;;;;;4981442;28;20266;-55
2023/01/31 07:12:06;;;;;;;;;;;;;;;;;;4990273;28;19960;-52
2023/01/31 07:14:31;;;;;;;;;;;;;;;;;;4987716;28;19921;-53
2023/01/31 07:16:57;;;;;;;;;;;;;;;;;;4989066;28;20365;-53
2023/01/31 07:19:23;;;;;;;;;;;;;;;;;;4993869;28;19952;-53
2023/01/31 07:21:49;;;;;;;;;;;;;;;;;;4988349;28;19925;-54
2023/01/31 07:24:15;;;;;;;;;;;;;;;;;;4996199;28;20254;-52
2023/01/31 07:26:41;;;;;;;;;;;;;;;;;;4992942;28;19945;-53
2023/01/31 07:29:07;;;;;;;;;;;;;;;;;;4985408;28;19925;-53
2023/01/31 07:31:33;;;;;;;;;;;;;;;;;;4989909;28;20413;-53
2023/01/31 07:33:58;;;;;;;;;;;;;;;;;;4990828;28;19917;-52
2023/01/31 07:36:25;;;;;;;;;;;;;;;;;;4991670;28;19917;-53
2023/01/31 07:38:51;;;;;;;;;;;;;;;;;;4994288;28;20411;-53
2023/01/31 07:41:17;;;;;;;;;;;;;;;;;;4993630;28;19914;-53
2023/01/31 07:43:43;;;;;;;;;;;;;;;;;;4993199;28;20506;-53
2023/01/31 07:46:09;;;;;;;;;;;;;;;;;;4988495;28;20384;-52
2023/01/31 07:48:35;;;;;;;;;;;;;;;;;;4993833;28;19957;-53
2023/01/31 07:51:01;;;;;;;;;;;;;;;;;;4996372;28;20413;-54
2023/01/31 07:53:27;;;;;;;;;;;;;;;;;;4991441;28;19940;-54
2023/01/31 07:55:53;;;;;;;;;;;;;;;;;;4993733;28;19918;-53
2023/01/31 07:58:19;;;;;;;;;;;;;;;;;;4992469;28;19988;-55
2023/01/31 08:03:32;;;;;;;;;;;;;;;;;;4987109;28;19925;-53
2023/01/31 08:05:58;;;;;;;;;;;;;;;;;;4989497;28;19921;-54
2023/01/31 08:08:24;;;;;;;;;;;;;;;;;;4989067;28;19917;-52
2023/01/31 08:10:50;;;;;;;;;;;;;;;;;;4983195;28;19918;-52
2023/01/31 08:13:16;;;;;;;;;;;;;;;;;;4983492;28;22052;-53
2023/01/31 08:15:42;;;;;;;;;;;;;;;;;;4984170;28;19928;-52
2023/01/31 08:18:07;;;;;;;;;;;;;;;;;;4990620;28;19921;-53
2023/01/31 08:20:36;;;;;;;;;;;;;;;;;;4992341;28;20003;-53
2023/01/31 08:23:02;;;;;;;;;;;;;;;;;;4993185;28;20397;-53
2023/01/31 08:25:29;;;;;;;;;;;;;;;;;;4990033;28;19928;-54
2023/01/31 08:27:54;;;;;;;;;;;;;;;;;;4992165;28;20482;-53
2023/01/31 08:30:20;;;;;;;;;;;;;;;;;;4990381;28;19913;-53
2023/01/31 08:32:46;;;;;;;;;;;;;;;;;;4991017;28;19921;-53
2023/01/31 08:35:12;;;;;;;;;;;;;;;;;;4993909;28;19976;-54
2023/01/31 08:37:38;;;;;;;;;;;;;;;;;;4984998;28;20429;-54
2023/01/31 08:40:04;;;;;;;;;;;;;;;;;;4987169;28;20482;-54
2023/01/31 08:42:30;;;;;;;;;;;;;;;;;;4987298;28;19929;-53
2023/01/31 08:44:56;;;;;;;;;;;;;;;;;;4994605;28;20368;-53
2023/01/31 08:47:22;;;;;;;;;;;;;;;;;;4994538;28;19921;-53
2023/01/31 08:49:47;;;;;;;;;;;;;;;;;;5001242;28;20024;-53
2023/01/31 08:52:13;;;;;;;;;;;;;;;;;;4992480;28;19964;-53
2023/01/31 08:54:39;;;;;;;;;;;;;;;;;;4990714;28;19917;-53
2023/01/31 08:57:05;;;;;;;;;;;;;;;;;;4989168;28;19964;-53
2023/01/31 08:59:31;;;;;;;;;;;;;;;;;;4990579;28;19925;-52
2023/01/31 09:01:57;;;;;;;;;;;;;;;;;;4989737;28;20461;-53
2023/01/31 09:04:23;;;;;;;;;;;;;;;;;;4974007;28;19967;-54
2023/01/31 09:06:49;;;;;;;;;;;;;;;;;;4991116;28;19976;-53
2023/01/31 09:09:15;;;;;;;;;;;;;;;;;;4993044;28;19917;-54
2023/01/31 09:11:40;;;;;;;;;;;;;;;;;;4995169;28;19928;-52
2023/01/31 09:14:06;;;;;;;;;;;;;;;;;;4990416;28;20074;-55
2023/01/31 09:16:32;;;;;;;;;;;;;;;;;;4995234;28;19913;-54
2023/01/31 09:18:58;;;;;;;;;;;;;;;;;;4995406;28;19969;-53
2023/01/31 09:21:24;;;;;;;;;;;;;;;;;;4993056;28;19939;-52
2023/01/31 09:23:50;;;;;;;;;;;;;;;;;;4990285;28;25420;-53
2023/01/31 09:26:16;;;;;;;;;;;;;;;;;;4996334;28;19921;-53
2023/01/31 09:28:42;;;;;;;;;;;;;;;;;;4993719;28;25609;-53
2023/01/31 09:31:08;;;;;;;;;;;;;;;;;;4995346;28;19960;-53
2023/01/31 09:33:34;;;;;;;;;;;;;;;;;;4994741;28;20423;-54
2023/01/31 09:35:59;;;;;;;;;;;;;;;;;;4993548;28;19920;-54
2023/01/31 09:38:25;;;;;;;;;;;;;;;;;;4994136;28;19952;-53
2023/01/31 09:40:51;;;;;;;;;;;;;;;;;;4994595;28;20004;-53
2023/01/31 09:43:17;;;;;;;;;;;;;;;;;;4991697;28;24581;-54
2023/01/31 09:45:43;;;;;;;;;;;;;;;;;;4992209;28;19925;-54
2023/01/31 09:48:09;;;;;;;;;;;;;;;;;;4992487;28;20036;-53
2023/01/31 09:50:35;;;;;;;;;;;;;;;;;;4991717;28;20052;-53
2023/01/31 09:53:01;;;;;;;;;;;;;;;;;;4990271;28;19918;-53
2023/01/31 09:55:26;;;;;;;;;;;;;;;;;;4995047;28;20501;-54
2023/01/31 09:57:52;;;;;;;;;;;;;;;;;;4991294;28;19914;-53
2023/01/31 10:00:18;;;;;;;;;;;;;;;;;;4992825;28;19928;-55
2023/01/31 10:02:44;;;;;;;;;;;;;;;;;;4992340;28;19922;-54
2023/01/31 10:05:10;;;;;;;;;;;;;;;;;;4989634;28;19921;-54
2023/01/31 10:07:36;;;;;;;;;;;;;;;;;;4989624;28;20289;-54
2023/01/31 10:10:02;;;;;;;;;;;;;;;;;;4996147;28;19914;-53
2023/01/31 10:12:28;;;;;;;;;;;;;;;;;;4996094;28;19921;-53
2023/01/31 10:14:53;;;;;;;;;;;;;;;;;;4993612;28;20302;-54
2023/01/31 10:17:19;;;;;;;;;;;;;;;;;;4993635;28;19968;-55
2023/01/31 10:19:45;;;;;;;;;;;;;;;;;;4995142;28;19932;-53
2023/01/31 10:22:14;;;;;;;;;;;;;;;;;;4992896;28;20305;-53
2023/01/31 10:24:39;;;;;;;;;;;;;;;;;;4993630;28;19949;-53
2023/01/31 10:27:05;;;;;;;;;;;;;;;;;;4994106;28;20028;-54
2023/01/31 10:29:31;;;;;;;;;;;;;;;;;;4986056;28;20437;-54
2023/01/31 10:31:57;;;;;;;;;;;;;;;;;;4986239;28;20059;-53
2023/01/31 10:34:23;;;;;;;;;;;;;;;;;;4991136;28;19913;-54
2023/01/31 10:36:49;;;;;;;;;;;;;;;;;;4991267;28;20297;-55
2023/01/31 10:39:15;;;;;;;;;;;;;;;;;;4988225;28;20370;-54
2023/01/31 10:41:41;;;;;;;;;;;;;;;;;;4991459;28;20044;-55
2023/01/31 10:44:07;;;;;;;;;;;;;;;;;;4989511;28;19925;-52
2023/01/31 10:46:32;;;;;;;;;;;;;;;;;;4994296;28;19921;-55
2023/01/31 10:48:58;;;;;;;;;;;;;;;;;;4991263;28;19956;-55
2023/01/31 10:51:25;;;;;;;;;;;;;;;;;;4990251;28;19918;-53
2023/01/31 10:53:51;;;;;;;;;;;;;;;;;;4994894;28;19913;-53
2023/01/31 10:56:18;;;;;;;;;;;;;;;;;;4989324;28;21691;-54
2023/01/31 10:58:44;;;;;;;;;;;;;;;;;;4994026;28;19998;-53
2023/01/31 11:01:14;;;;;;;;;;;;;;;;;;4990388;28;19917;-53
2023/01/31 11:03:39;;;;;;;;;;;;;;;;;;4987253;28;20449;-53
2023/01/31 11:06:05;;;;;;;;;;;;;;;;;;4990267;28;19927;-53
2023/01/31 11:08:31;;;;;;;;;;;;;;;;;;4991395;28;19928;-53
2023/01/31 11:10:57;;;;;;;;;;;;;;;;;;4993023;28;19959;-53
2023/01/31 11:13:23;;;;;;;;;;;;;;;;;;4999221;28;19974;-53
2023/01/31 11:15:49;;;;;;;;;;;;;;;;;;4997197;28;19956;-53
2023/01/31 11:18:15;;;;;;;;;;;;;;;;;;4997981;28;19920;-54
2023/01/31 11:20:41;;;;;;;;;;;;;;;;;;4996860;28;19921;-53
2023/01/31 11:23:07;;;;;;;;;;;;;;;;;;4997326;28;19916;-54
2023/01/31 11:25:32;;;;;;;;;;;;;;;;;;4994552;28;19921;-55
2023/01/31 11:27:58;;;;;;;;;;;;;;;;;;4997225;28;20377;-53
2023/01/31 11:30:24;;;;;;;;;;;;;;;;;;4997738;28;20052;-53
2023/01/31 11:32:50;;;;;;;;;;;;;;;;;;4995672;28;19924;-52
2023/01/31 11:35:16;;;;;;;;;;;;;;;;;;4997155;28;20270;-53
2023/01/31 11:37:42;;;;;;;;;;;;;;;;;;4994579;28;19961;-52
2023/01/31 11:40:08;;;;;;;;;;;;;;;;;;4996882;28;19928;-55
2023/01/31 11:42:33;;;;;;;;;;;;;;;;;;4998451;28;20354;-53
2023/01/31 11:44:59;;;;;;;;;;;;;;;;;;4991891;28;19918;-54
2023/01/31 11:47:25;;;;;;;;;;;;;;;;;;4993928;28;20519;-53
2023/01/31 11:49:51;;;;;;;;;;;;;;;;;;4995468;28;20021;-54
2023/01/31 11:52:17;;;;;;;;;;;;;;;;;;4979663;28;20321;-53
2023/01/31 11:54:43;;;;;;;;;;;;;;;;;;4991081;28;19917;-53
2023/01/31 11:57:09;;;;;;;;;;;;;;;;;;4995622;28;19917;-53
2023/01/31 11:59:35;;;;;;;;;;;;;;;;;;4987081;28;19936;-53
2023/01/31 12:02:01;;;;;;;;;;;;;;;;;;4993648;28;19922;-52
2023/01/31 12:04:26;;;;;;;;;;;;;;;;;;4997449;28;19976;-54
2023/01/31 12:06:52;;;;;;;;;;;;;;;;;;4990959;28;19923;-54
2023/01/31 12:09:18;;;;;;;;;;;;;;;;;;4990814;28;19918;-55
2023/01/31 12:11:44;;;;;;;;;;;;;;;;;;4990711;28;19917;-52
2023/01/31 12:14:10;;;;;;;;;;;;;;;;;;4993555;28;19913;-53
2023/01/31 12:16:36;;;;;;;;;;;;;;;;;;4991761;28;19914;-53
2023/01/31 12:19:02;;;;;;;;;;;;;;;;;;4993127;28;19922;-52
2023/01/31 12:21:28;;;;;;;;;;;;;;;;;;4992550;28;20467;-53
2023/01/31 12:23:53;;;;;;;;;;;;;;;;;;4981732;28;20086;-53
2023/01/31 12:26:19;;;;;;;;;;;;;;;;;;4993450;28;20429;-53
2023/01/31 12:28:45;;;;;;;;;;;;;;;;;;4988009;28;19918;-53
2023/01/31 12:31:11;;;;;;;;;;;;;;;;;;4990145;28;19918;-52
2023/01/31 12:33:37;;;;;;;;;;;;;;;;;;4988401;28;20357;-55
2023/01/31 12:36:03;;;;;;;;;;;;;;;;;;4987030;28;19918;-54
2023/01/31 12:38:29;;;;;;;;;;;;;;;;;;4992914;28;19944;-53
2023/01/31 12:40:55;;;;;;;;;;;;;;;;;;4992923;28;19917;-54
2023/01/31 12:43:21;;;;;;;;;;;;;;;;;;4992740;28;19947;-55
2023/01/31 12:45:47;;;;;;;;;;;;;;;;;;4992978;28;19926;-54
2023/01/31 12:48:13;;;;;;;;;;;;;;;;;;4993467;28;20029;-52
2023/01/31 12:50:39;;;;;;;;;;;;;;;;;;4994008;28;20672;-54
2023/01/31 12:53:04;;;;;;;;;;;;;;;;;;4990089;28;20015;-53
2023/01/31 12:55:30;;;;;;;;;;;;;;;;;;4993923;28;20297;-53
2023/01/31 12:57:56;;;;;;;;;;;;;;;;;;4988707;28;19941;-54
2023/01/31 13:00:22;;;;;;;;;;;;;;;;;;4990733;28;19921;-53
2023/01/31 13:02:48;;;;;;;;;;;;;;;;;;4993211;28;19944;-55
2023/01/31 13:05:14;;;;;;;;;;;;;;;;;;4986721;28;19917;-53
2023/01/31 13:07:40;;;;;;;;;;;;;;;;;;4996368;28;19932;-53
2023/01/31 13:10:06;;;;;;;;;;;;;;;;;;4991513;28;20394;-53
2023/01/31 13:12:31;;;;;;;;;;;;;;;;;;4992461;28;20001;-54
2023/01/31 13:14:57;;;;;;;;;;;;;;;;;;4994725;28;20275;-53
2023/01/31 13:17:23;;;;;;;;;;;;;;;;;;4996748;28;20381;-53
2023/01/31 13:19:49;;;;;;;;;;;;;;;;;;4983814;28;19929;-55
2023/01/31 13:22:15;;;;;;;;;;;;;;;;;;4982732;28;19925;-53
2023/01/31 13:24:41;;;;;;;;;;;;;;;;;;4990088;28;19921;-53
2023/01/31 13:27:07;;;;;;;;;;;;;;;;;;4987826;28;19921;-53
2023/01/31 13:29:33;;;;;;;;;;;;;;;;;;4989030;28;19960;-54
2023/01/31 13:31:59;;;;;;;;;;;;;;;;;;4990400;28;19928;-53
2023/01/31 13:34:24;;;;;;;;;;;;;;;;;;4988209;28;19917;-53
2023/01/31 13:36:50;;;;;;;;;;;;;;;;;;4987461;28;19922;-53
2023/01/31 13:39:16;;;;;;;;;;;;;;;;;;4992729;28;19924;-53
2023/01/31 13:41:42;;;;;;;;;;;;;;;;;;4989454;28;20025;-54
2023/01/31 13:44:08;;;;;;;;;;;;;;;;;;4986950;28;20693;-54
2023/01/31 13:46:34;;;;;;;;;;;;;;;;;;4997061;28;20008;-53
2023/01/31 13:49:00;;;;;;;;;;;;;;;;;;4993520;28;19913;-52
2023/01/31 13:51:26;;;;;;;;;;;;;;;;;;4994391;28;19922;-53
2023/01/31 13:53:52;;;;;;;;;;;;;;;;;;4989197;28;20297;-56
2023/01/31 13:56:17;;;;;;;;;;;;;;;;;;4997046;28;19961;-54
2023/01/31 13:58:44;;;;;;;;;;;;;;;;;;4994574;28;20463;-54
2023/01/31 14:01:12;;;;;;;;;;;;;;;;;;4989862;28;19925;-56
2023/01/31 14:03:38;;;;;;;;;;;;;;;;;;4993748;28;19924;-55
2023/01/31 14:06:03;;;;;;;;;;;;;;;;;;4994114;28;19917;-53
2023/01/31 14:08:29;;;;;;;;;;;;;;;;;;4989777;28;19941;-54
2023/01/31 14:10:55;;;;;;;;;;;;;;;;;;4986828;28;20321;-53
2023/01/31 14:13:21;;;;;;;;;;;;;;;;;;4985058;28;20289;-55
2023/01/31 14:15:47;;;;;;;;;;;;;;;;;;4992784;28;19924;-53
2023/01/31 14:18:13;;;;;;;;;;;;;;;;;;4985281;28;19922;-54
2023/01/31 14:20:39;;;;;;;;;;;;;;;;;;4992901;28;20382;-52
2023/01/31 14:23:04;;;;;;;;;;;;;;;;;;4983619;28;19917;-53
2023/01/31 14:25:30;;;;;;;;;;;;;;;;;;4988661;28;19922;-53
2023/01/31 14:27:56;;;;;;;;;;;;;;;;;;4992266;28;19995;-53
2023/01/31 14:30:22;;;;;;;;;;;;;;;;;;4987016;28;20374;-53
2023/01/31 14:32:48;;;;;;;;;;;;;;;;;;4993749;28;19928;-53
2023/01/31 14:35:14;;;;;;;;;;;;;;;;;;4990336;28;19983;-54
2023/01/31 14:37:40;;;;;;;;;;;;;;;;;;4992582;28;20008;-53
2023/01/31 14:40:08;;;;;;;;;;;;;;;;;;4995804;28;19987;-55
2023/01/31 14:42:33;;;;;;;;;;;;;;;;;;4990596;28;19973;-54
2023/01/31 14:45:01;;;;;;;;;;;;;;;;;;4994879;28;19925;-54
2023/01/31 14:47:27;;;;;;;;;;;;;;;;;;4998682;28;20292;-54
2023/01/31 14:49:53;;;;;;;;;;;;;;;;;;4996947;28;19917;-53
2023/01/31 14:52:18;;;;;;;;;;;;;;;;;;4988222;28;19914;-55
2023/01/31 14:54:44;;;;;;;;;;;;;;;;;;4978948;28;19924;-54
2023/01/31 14:57:10;;;;;;;;;;;;;;;;;;4985700;28;21347;-54
2023/01/31 14:59:36;;;;;;;;;;;;;;;;;;4977321;28;21374;-53
2023/01/31 15:02:02;;;;;;;;;;;;;;;;;;4985732;28;19914;-55
2023/01/31 15:04:28;;;;;;;;;;;;;;;;;;4990815;28;20372;-56
2023/01/31 15:06:54;;;;;;;;;;;;;;;;;;4985419;28;19918;-54
2023/01/31 15:09:20;;;;;;;;;;;;;;;;;;4992137;28;20366;-54
2023/01/31 15:11:46;;;;;;;;;;;;;;;;;;4996418;28;19928;-53
2023/01/31 15:14:12;;;;;;;;;;;;;;;;;;4997983;28;19917;-53
2023/01/31 15:16:37;;;;;;;;;;;;;;;;;;4993714;28;19914;-54
2023/01/31 15:19:03;;;;;;;;;;;;;;;;;;4986720;28;20437;-55
2023/01/31 15:21:29;;;;;;;;;;;;;;;;;;4993581;28;19928;-54
2023/01/31 15:23:55;;;;;;;;;;;;;;;;;;4981256;28;19997;-52
2023/01/31 15:26:21;;;;;;;;;;;;;;;;;;4980740;28;19918;-52
2023/01/31 15:28:47;;;;;;;;;;;;;;;;;;4980022;28;19914;-54
2023/01/31 15:31:13;;;;;;;;;;;;;;;;;;4984942;28;20421;-53
2023/01/31 15:33:39;;;;;;;;;;;;;;;;;;4988469;28;19968;-53
2023/01/31 15:36:05;;;;;;;;;;;;;;;;;;4984136;28;20012;-52
2023/01/31 15:38:31;;;;;;;;;;;;;;;;;;4988519;28;20449;-53
2023/01/31 15:40:57;;;;;;;;;;;;;;;;;;4991187;28;19952;-53
2023/01/31 15:43:23;;;;;;;;;;;;;;;;;;4994984;28;19961;-53
2023/01/31 15:45:51;;;;;;;;;;;;;;;;;;4987473;28;20623;-55
2023/01/31 15:48:17;;;;;;;;;;;;;;;;;;4994312;28;19918;-53
2023/01/31 15:50:42;;;;;;;;;;;;;;;;;;5000549;28;19949;-53
2023/01/31 15:53:08;;;;;;;;;;;;;;;;;;4990679;28;19960;-54
2023/01/31 15:55:34;;;;;;;;;;;;;;;;;;4991081;28;19922;-54
2023/01/31 15:58:00;;;;;;;;;;;;;;;;;;4990661;28;19914;-53
2023/01/31 16:00:26;;;;;;;;;;;;;;;;;;4984250;28;19926;-53
2023/01/31 16:03:01;;;;;;;;;;;;;;;;;;4978466;28;20275;-53
2023/01/31 16:05:27;;;;;;;;;;;;;;;;;;4975309;28;19945;-53
2023/01/31 16:07:53;;;;;;;;;;;;;;;;;;4985638;28;20374;-54
2023/01/31 16:10:19;;;;;;;;;;;;;;;;;;4978386;28;20013;-54
2023/01/31 16:12:45;;;;;;;;;;;;;;;;;;4979361;28;20005;-54
2023/01/31 16:15:11;;;;;;;;;;;;;;;;;;4994999;28;20697;-54
2023/01/31 16:17:37;;;;;;;;;;;;;;;;;;4992128;28;19913;-56
2023/01/31 16:20:04;;;;;;;;;;;;;;;;;;4992563;28;19932;-54
2023/01/31 16:22:30;;;;;;;;;;;;;;;;;;4987446;28;20398;-55
2023/01/31 16:24:56;;;;;;;;;;;;;;;;;;4990984;28;19917;-55
2023/01/31 16:27:22;;;;;;;;;;;;;;;;;;4990115;28;19914;-55
2023/01/31 16:29:48;;;;;;;;;;;;;;;;;;4986180;28;19956;-55
2023/01/31 16:32:13;;;;;;;;;;;;;;;;;;4984222;28;19917;-54
2023/01/31 16:34:40;;;;;;;;;;;;;;;;;;4991703;28;20471;-54
2023/01/31 16:37:08;;;;;;;;;;;;;;;;;;4992116;28;20263;-54
2023/01/31 16:39:34;;;;;;;;;;;;;;;;;;4990924;28;20004;-55
2023/01/31 16:42:00;;;;;;;;;;;;;;;;;;4984591;28;19928;-55
2023/01/31 16:44:26;;;;;;;;;;;;;;;;;;4986166;28;19917;-57
2023/01/31 16:46:52;;;;;;;;;;;;;;;;;;4989898;28;19960;-55
2023/01/31 16:49:18;;;;;;;;;;;;;;;;;;4981577;28;19925;-54